sensor_id;sensor_type;location;lat;lon;timestamp;temperature;humidity
63017;DHT22;50274;45.640;11.756;2024-03-07T00:00:57;11.40;75.60
63017;DHT22;50274;45.640;11.756;2024-03-07T00:03:25;11.30;75.40
63017;DHT22;50274;45.640;11.756;2024-03-07T00:05:51;11.30;75.50
63017;DHT22;50274;45.640;11.756;2024-03-07T00:08:17;11.30;75.50
63017;DHT22;50274;45.640;11.756;2024-03-07T00:10:43;11.30;75.60
63017;DHT22;50274;45.640;11.756;2024-03-07T00:13:10;11.30;75.50
63017;DHT22;50274;45.640;11.756;2024-03-07T00:15:35;11.20;75.60
63017;DHT22;50274;45.640;11.756;2024-03-07T00:18:02;11.20;75.60
63017;DHT22;50274;45.640;11.756;2024-03-07T00:20:28;11.10;75.60
63017;DHT22;50274;45.640;11.756;2024-03-07T00:22:54;11.10;75.70
63017;DHT22;50274;45.640;11.756;2024-03-07T00:25:20;11.10;75.80
63017;DHT22;50274;45.640;11.756;2024-03-07T00:27:47;11.10;75.80
63017;DHT22;50274;45.640;11.756;2024-03-07T00:30:14;11.10;75.90
63017;DHT22;50274;45.640;11.756;2024-03-07T00:32:44;11.10;75.90
63017;DHT22;50274;45.640;11.756;2024-03-07T00:35:10;11.10;75.90
63017;DHT22;50274;45.640;11.756;2024-03-07T00:37:36;11.10;75.90
63017;DHT22;50274;45.640;11.756;2024-03-07T00:40:02;11.10;75.90
63017;DHT22;50274;45.640;11.756;2024-03-07T00:42:28;11.10;75.90
63017;DHT22;50274;45.640;11.756;2024-03-07T00:44:55;11.10;75.90
63017;DHT22;50274;45.640;11.756;2024-03-07T00:47:21;11.00;76.00
63017;DHT22;50274;45.640;11.756;2024-03-07T00:49:47;11.00;76.00
63017;DHT22;50274;45.640;11.756;2024-03-07T00:52:13;11.00;76.10
63017;DHT22;50274;45.640;11.756;2024-03-07T00:54:39;11.00;76.10
63017;DHT22;50274;45.640;11.756;2024-03-07T00:57:05;10.90;76.20
63017;DHT22;50274;45.640;11.756;2024-03-07T00:59:33;11.00;76.30
63017;DHT22;50274;45.640;11.756;2024-03-07T01:01:59;10.90;76.30
63017;DHT22;50274;45.640;11.756;2024-03-07T01:04:25;11.00;76.40
63017;DHT22;50274;45.640;11.756;2024-03-07T01:06:56;10.90;76.40
63017;DHT22;50274;45.640;11.756;2024-03-07T01:09:23;10.90;76.40
63017;DHT22;50274;45.640;11.756;2024-03-07T01:11:49;10.90;76.40
63017;DHT22;50274;45.640;11.756;2024-03-07T01:14:15;10.90;76.40
63017;DHT22;50274;45.640;11.756;2024-03-07T01:16:41;10.90;76.40
63017;DHT22;50274;45.640;11.756;2024-03-07T01:19:07;10.90;76.40
63017;DHT22;50274;45.640;11.756;2024-03-07T01:21:34;10.90;76.50
63017;DHT22;50274;45.640;11.756;2024-03-07T01:24:00;10.90;76.50
63017;DHT22;50274;45.640;11.756;2024-03-07T01:26:28;10.80;76.50
63017;DHT22;50274;45.640;11.756;2024-03-07T01:28:55;10.80;76.50
63017;DHT22;50274;45.640;11.756;2024-03-07T01:31:22;10.80;76.60
63017;DHT22;50274;45.640;11.756;2024-03-07T01:33:48;10.80;76.60
63017;DHT22;50274;45.640;11.756;2024-03-07T01:36:14;10.80;76.70
63017;DHT22;50274;45.640;11.756;2024-03-07T01:38:40;10.80;76.60
63017;DHT22;50274;45.640;11.756;2024-03-07T01:41:05;10.80;76.70
63017;DHT22;50274;45.640;11.756;2024-03-07T01:43:31;10.70;76.70
63017;DHT22;50274;45.640;11.756;2024-03-07T01:45:57;10.70;76.80
63017;DHT22;50274;45.640;11.756;2024-03-07T01:48:29;10.70;76.80
63017;DHT22;50274;45.640;11.756;2024-03-07T01:50:58;10.70;76.90
63017;DHT22;50274;45.640;11.756;2024-03-07T01:53:25;10.70;76.90
63017;DHT22;50274;45.640;11.756;2024-03-07T01:55:52;10.70;76.90
63017;DHT22;50274;45.640;11.756;2024-03-07T01:58:19;10.70;76.90
63017;DHT22;50274;45.640;11.756;2024-03-07T02:00:46;10.70;76.90
63017;DHT22;50274;45.640;11.756;2024-03-07T02:03:16;10.70;76.90
63017;DHT22;50274;45.640;11.756;2024-03-07T02:05:42;10.60;77.00
63017;DHT22;50274;45.640;11.756;2024-03-07T02:08:08;10.60;77.00
63017;DHT22;50274;45.640;11.756;2024-03-07T02:10:34;10.60;77.10
63017;DHT22;50274;45.640;11.756;2024-03-07T02:12:59;10.60;77.10
63017;DHT22;50274;45.640;11.756;2024-03-07T02:15:28;10.60;77.10
63017;DHT22;50274;45.640;11.756;2024-03-07T02:17:54;10.60;77.10
63017;DHT22;50274;45.640;11.756;2024-03-07T02:20:20;10.70;77.10
63017;DHT22;50274;45.640;11.756;2024-03-07T02:22:46;10.70;77.10
63017;DHT22;50274;45.640;11.756;2024-03-07T02:25:12;10.70;77.10
63017;DHT22;50274;45.640;11.756;2024-03-07T02:27:41;10.80;77.00
63017;DHT22;50274;45.640;11.756;2024-03-07T02:30:07;10.80;77.00
63017;DHT22;50274;45.640;11.756;2024-03-07T02:32:37;10.80;77.00
63017;DHT22;50274;45.640;11.756;2024-03-07T02:35:06;10.80;76.90
63017;DHT22;50274;45.640;11.756;2024-03-07T02:37:32;10.90;76.90
63017;DHT22;50274;45.640;11.756;2024-03-07T02:39:58;10.90;76.90
63017;DHT22;50274;45.640;11.756;2024-03-07T02:42:24;10.80;76.80
63017;DHT22;50274;45.640;11.756;2024-03-07T02:44:50;10.90;76.80
63017;DHT22;50274;45.640;11.756;2024-03-07T02:47:18;10.90;76.80
63017;DHT22;50274;45.640;11.756;2024-03-07T02:49:44;10.90;76.80
63017;DHT22;50274;45.640;11.756;2024-03-07T02:52:10;10.90;76.80
63017;DHT22;50274;45.640;11.756;2024-03-07T02:54:36;10.90;76.90
63017;DHT22;50274;45.640;11.756;2024-03-07T02:57:01;10.90;76.90
63017;DHT22;50274;45.640;11.756;2024-03-07T02:59:27;10.90;76.90
63017;DHT22;50274;45.640;11.756;2024-03-07T03:01:53;10.90;77.00
63017;DHT22;50274;45.640;11.756;2024-03-07T03:04:19;10.90;77.00
63017;DHT22;50274;45.640;11.756;2024-03-07T03:06:45;10.90;77.00
63017;DHT22;50274;45.640;11.756;2024-03-07T03:09:12;10.90;77.00
63017;DHT22;50274;45.640;11.756;2024-03-07T03:11:45;10.80;77.00
63017;DHT22;50274;45.640;11.756;2024-03-07T03:14:12;10.80;77.00
63017;DHT22;50274;45.640;11.756;2024-03-07T03:16:41;10.80;77.00
63017;DHT22;50274;45.640;11.756;2024-03-07T03:19:08;10.80;77.10
63017;DHT22;50274;45.640;11.756;2024-03-07T03:21:34;10.80;77.10
63017;DHT22;50274;45.640;11.756;2024-03-07T03:24:00;10.80;77.10
63017;DHT22;50274;45.640;11.756;2024-03-07T03:26:28;10.80;77.20
63017;DHT22;50274;45.640;11.756;2024-03-07T03:28:54;10.80;77.10
63017;DHT22;50274;45.640;11.756;2024-03-07T03:31:20;10.70;77.20
63017;DHT22;50274;45.640;11.756;2024-03-07T03:33:46;10.70;77.30
63017;DHT22;50274;45.640;11.756;2024-03-07T03:36:11;10.70;77.30
63017;DHT22;50274;45.640;11.756;2024-03-07T03:38:37;10.70;77.40
63017;DHT22;50274;45.640;11.756;2024-03-07T03:41:03;10.70;77.40
63017;DHT22;50274;45.640;11.756;2024-03-07T03:43:30;10.70;77.40
63017;DHT22;50274;45.640;11.756;2024-03-07T03:45:57;10.70;77.50
63017;DHT22;50274;45.640;11.756;2024-03-07T03:48:23;10.70;77.50
63017;DHT22;50274;45.640;11.756;2024-03-07T03:50:49;10.70;77.50
63017;DHT22;50274;45.640;11.756;2024-03-07T03:53:15;10.70;77.50
63017;DHT22;50274;45.640;11.756;2024-03-07T03:55:40;10.70;77.50
63017;DHT22;50274;45.640;11.756;2024-03-07T03:58:06;10.80;77.50
63017;DHT22;50274;45.640;11.756;2024-03-07T04:00:32;10.70;77.60
63017;DHT22;50274;45.640;11.756;2024-03-07T04:02:58;10.80;77.60
63017;DHT22;50274;45.640;11.756;2024-03-07T04:05:24;10.70;77.60
63017;DHT22;50274;45.640;11.756;2024-03-07T04:07:50;10.80;77.60
63017;DHT22;50274;45.640;11.756;2024-03-07T04:10:17;10.80;77.50
63017;DHT22;50274;45.640;11.756;2024-03-07T04:12:44;10.80;77.60
63017;DHT22;50274;45.640;11.756;2024-03-07T04:15:14;10.80;77.60
63017;DHT22;50274;45.640;11.756;2024-03-07T04:17:42;10.80;77.60
63017;DHT22;50274;45.640;11.756;2024-03-07T04:20:10;10.80;77.60
63017;DHT22;50274;45.640;11.756;2024-03-07T04:22:37;10.80;77.60
63017;DHT22;50274;45.640;11.756;2024-03-07T04:25:07;10.80;77.60
63017;DHT22;50274;45.640;11.756;2024-03-07T04:27:34;10.80;77.70
63017;DHT22;50274;45.640;11.756;2024-03-07T04:30:03;10.80;77.70
63017;DHT22;50274;45.640;11.756;2024-03-07T04:32:30;10.80;77.80
63017;DHT22;50274;45.640;11.756;2024-03-07T04:34:56;10.80;77.80
63017;DHT22;50274;45.640;11.756;2024-03-07T04:37:26;10.80;77.80
63017;DHT22;50274;45.640;11.756;2024-03-07T04:39:53;10.80;77.80
63017;DHT22;50274;45.640;11.756;2024-03-07T04:42:19;10.80;77.80
63017;DHT22;50274;45.640;11.756;2024-03-07T04:44:44;10.80;77.80
63017;DHT22;50274;45.640;11.756;2024-03-07T04:47:10;10.80;77.80
63017;DHT22;50274;45.640;11.756;2024-03-07T04:49:36;10.80;77.80
63017;DHT22;50274;45.640;11.756;2024-03-07T04:52:03;10.80;77.80
63017;DHT22;50274;45.640;11.756;2024-03-07T04:54:29;10.80;77.80
63017;DHT22;50274;45.640;11.756;2024-03-07T04:56:55;10.80;77.90
63017;DHT22;50274;45.640;11.756;2024-03-07T04:59:22;10.80;77.90
63017;DHT22;50274;45.640;11.756;2024-03-07T05:01:49;10.80;77.90
63017;DHT22;50274;45.640;11.756;2024-03-07T05:04:16;10.80;77.90
63017;DHT22;50274;45.640;11.756;2024-03-07T05:06:42;10.80;78.00
63017;DHT22;50274;45.640;11.756;2024-03-07T05:09:09;10.80;78.00
63017;DHT22;50274;45.640;11.756;2024-03-07T05:11:47;10.80;78.00
63017;DHT22;50274;45.640;11.756;2024-03-07T05:14:12;10.80;78.00
63017;DHT22;50274;45.640;11.756;2024-03-07T05:16:38;10.80;78.10
63017;DHT22;50274;45.640;11.756;2024-03-07T05:19:04;10.80;78.10
63017;DHT22;50274;45.640;11.756;2024-03-07T05:21:30;10.80;78.10
63017;DHT22;50274;45.640;11.756;2024-03-07T05:24:00;10.70;78.20
63017;DHT22;50274;45.640;11.756;2024-03-07T05:26:26;10.80;78.20
63017;DHT22;50274;45.640;11.756;2024-03-07T05:28:52;10.80;78.20
63017;DHT22;50274;45.640;11.756;2024-03-07T05:31:20;10.70;78.30
63017;DHT22;50274;45.640;11.756;2024-03-07T05:33:47;10.80;78.30
63017;DHT22;50274;45.640;11.756;2024-03-07T05:36:12;10.70;78.40
63017;DHT22;50274;45.640;11.756;2024-03-07T05:38:44;10.70;78.40
63017;DHT22;50274;45.640;11.756;2024-03-07T05:41:13;10.80;78.40
63017;DHT22;50274;45.640;11.756;2024-03-07T05:43:40;10.70;78.40
63017;DHT22;50274;45.640;11.756;2024-03-07T05:46:06;10.70;78.40
63017;DHT22;50274;45.640;11.756;2024-03-07T05:48:36;10.70;78.40
63017;DHT22;50274;45.640;11.756;2024-03-07T05:51:02;10.70;78.40
63017;DHT22;50274;45.640;11.756;2024-03-07T05:53:29;10.70;78.50
63017;DHT22;50274;45.640;11.756;2024-03-07T05:56:13;10.70;78.50
63017;DHT22;50274;45.640;11.756;2024-03-07T05:58:49;10.70;78.60
63017;DHT22;50274;45.640;11.756;2024-03-07T06:01:31;10.70;78.60
63017;DHT22;50274;45.640;11.756;2024-03-07T06:03:59;10.70;78.60
63017;DHT22;50274;45.640;11.756;2024-03-07T06:06:25;10.70;78.60
63017;DHT22;50274;45.640;11.756;2024-03-07T06:08:51;10.70;78.60
63017;DHT22;50274;45.640;11.756;2024-03-07T06:11:17;10.70;78.60
63017;DHT22;50274;45.640;11.756;2024-03-07T06:13:49;10.70;78.60
63017;DHT22;50274;45.640;11.756;2024-03-07T06:16:15;10.70;78.70
63017;DHT22;50274;45.640;11.756;2024-03-07T06:18:41;10.70;78.60
63017;DHT22;50274;45.640;11.756;2024-03-07T06:21:07;10.70;78.60
63017;DHT22;50274;45.640;11.756;2024-03-07T06:23:34;10.70;78.60
63017;DHT22;50274;45.640;11.756;2024-03-07T06:26:00;10.70;78.60
63017;DHT22;50274;45.640;11.756;2024-03-07T06:28:26;10.70;78.70
63017;DHT22;50274;45.640;11.756;2024-03-07T06:30:55;10.70;78.70
63017;DHT22;50274;45.640;11.756;2024-03-07T06:33:21;10.70;78.70
63017;DHT22;50274;45.640;11.756;2024-03-07T06:35:47;10.70;78.70
63017;DHT22;50274;45.640;11.756;2024-03-07T06:38:14;10.70;78.80
63017;DHT22;50274;45.640;11.756;2024-03-07T06:40:40;10.70;78.80
63017;DHT22;50274;45.640;11.756;2024-03-07T06:43:08;10.80;78.80
63017;DHT22;50274;45.640;11.756;2024-03-07T06:45:38;10.70;78.90
63017;DHT22;50274;45.640;11.756;2024-03-07T06:48:08;10.80;78.80
63017;DHT22;50274;45.640;11.756;2024-03-07T06:50:34;10.80;78.90
63017;DHT22;50274;45.640;11.756;2024-03-07T06:53:01;10.80;78.80
63017;DHT22;50274;45.640;11.756;2024-03-07T06:55:26;10.80;78.90
63017;DHT22;50274;45.640;11.756;2024-03-07T06:57:53;10.80;78.90
63017;DHT22;50274;45.640;11.756;2024-03-07T07:00:20;10.80;78.90
63017;DHT22;50274;45.640;11.756;2024-03-07T07:02:47;10.80;78.90
63017;DHT22;50274;45.640;11.756;2024-03-07T07:05:14;10.80;79.00
63017;DHT22;50274;45.640;11.756;2024-03-07T07:07:44;10.80;78.90
63017;DHT22;50274;45.640;11.756;2024-03-07T07:10:11;10.90;78.90
63017;DHT22;50274;45.640;11.756;2024-03-07T07:12:50;10.90;78.90
63017;DHT22;50274;45.640;11.756;2024-03-07T07:15:18;10.90;78.90
63017;DHT22;50274;45.640;11.756;2024-03-07T07:17:46;10.90;78.90
63017;DHT22;50274;45.640;11.756;2024-03-07T07:20:14;10.90;78.90
63017;DHT22;50274;45.640;11.756;2024-03-07T07:22:45;10.90;78.80
63017;DHT22;50274;45.640;11.756;2024-03-07T07:25:12;10.90;78.80
63017;DHT22;50274;45.640;11.756;2024-03-07T07:27:48;10.90;78.90
63017;DHT22;50274;45.640;11.756;2024-03-07T07:30:15;10.90;79.00
63017;DHT22;50274;45.640;11.756;2024-03-07T07:32:42;10.90;78.90
63017;DHT22;50274;45.640;11.756;2024-03-07T07:35:09;10.90;79.00
63017;DHT22;50274;45.640;11.756;2024-03-07T07:37:39;10.90;79.10
63017;DHT22;50274;45.640;11.756;2024-03-07T07:40:07;10.90;79.10
63017;DHT22;50274;45.640;11.756;2024-03-07T07:42:35;10.90;79.10
63017;DHT22;50274;45.640;11.756;2024-03-07T07:45:06;10.90;79.10
63017;DHT22;50274;45.640;11.756;2024-03-07T07:47:32;11.00;79.10
63017;DHT22;50274;45.640;11.756;2024-03-07T07:49:58;11.00;79.20
63017;DHT22;50274;45.640;11.756;2024-03-07T07:52:24;11.00;79.10
63017;DHT22;50274;45.640;11.756;2024-03-07T07:54:50;11.00;79.10
63017;DHT22;50274;45.640;11.756;2024-03-07T07:57:15;11.00;79.10
63017;DHT22;50274;45.640;11.756;2024-03-07T07:59:41;11.00;79.10
63017;DHT22;50274;45.640;11.756;2024-03-07T08:02:07;11.10;79.10
63017;DHT22;50274;45.640;11.756;2024-03-07T08:04:33;11.10;79.00
63017;DHT22;50274;45.640;11.756;2024-03-07T08:06:59;11.10;79.00
63017;DHT22;50274;45.640;11.756;2024-03-07T08:09:25;11.10;78.90
63017;DHT22;50274;45.640;11.756;2024-03-07T08:11:51;11.20;78.90
63017;DHT22;50274;45.640;11.756;2024-03-07T08:14:18;11.20;78.90
63017;DHT22;50274;45.640;11.756;2024-03-07T08:16:48;11.20;78.90
63017;DHT22;50274;45.640;11.756;2024-03-07T08:19:13;11.20;78.90
63017;DHT22;50274;45.640;11.756;2024-03-07T08:21:40;11.30;78.80
63017;DHT22;50274;45.640;11.756;2024-03-07T08:24:05;11.30;78.80
63017;DHT22;50274;45.640;11.756;2024-03-07T08:26:36;11.30;78.70
63017;DHT22;50274;45.640;11.756;2024-03-07T08:29:03;11.30;78.70
63017;DHT22;50274;45.640;11.756;2024-03-07T08:31:28;11.30;78.60
63017;DHT22;50274;45.640;11.756;2024-03-07T08:33:54;11.30;78.60
63017;DHT22;50274;45.640;11.756;2024-03-07T08:36:20;11.30;78.60
63017;DHT22;50274;45.640;11.756;2024-03-07T08:38:46;11.40;78.60
63017;DHT22;50274;45.640;11.756;2024-03-07T08:41:12;11.30;78.70
63017;DHT22;50274;45.640;11.756;2024-03-07T08:43:37;11.30;78.60
63017;DHT22;50274;45.640;11.756;2024-03-07T08:46:03;11.30;78.70
63017;DHT22;50274;45.640;11.756;2024-03-07T08:48:29;11.30;78.70
63017;DHT22;50274;45.640;11.756;2024-03-07T08:50:55;11.30;78.70
63017;DHT22;50274;45.640;11.756;2024-03-07T08:53:20;11.30;78.70
63017;DHT22;50274;45.640;11.756;2024-03-07T08:55:46;11.40;78.70
63017;DHT22;50274;45.640;11.756;2024-03-07T08:58:12;11.40;78.80
63017;DHT22;50274;45.640;11.756;2024-03-07T09:00:38;11.50;78.80
63017;DHT22;50274;45.640;11.756;2024-03-07T09:03:04;11.50;78.90
63017;DHT22;50274;45.640;11.756;2024-03-07T09:05:35;11.50;78.80
63017;DHT22;50274;45.640;11.756;2024-03-07T09:08:00;11.50;78.80
63017;DHT22;50274;45.640;11.756;2024-03-07T09:10:28;11.50;78.60
63017;DHT22;50274;45.640;11.756;2024-03-07T09:12:56;11.50;78.40
63017;DHT22;50274;45.640;11.756;2024-03-07T09:15:22;11.50;78.30
63017;DHT22;50274;45.640;11.756;2024-03-07T09:17:48;11.50;78.10
63017;DHT22;50274;45.640;11.756;2024-03-07T09:20:14;11.50;78.10
63017;DHT22;50274;45.640;11.756;2024-03-07T09:22:44;11.50;78.10
63017;DHT22;50274;45.640;11.756;2024-03-07T09:25:10;11.50;78.00
63017;DHT22;50274;45.640;11.756;2024-03-07T09:27:38;11.50;78.10
63017;DHT22;50274;45.640;11.756;2024-03-07T09:30:07;11.50;78.20
63017;DHT22;50274;45.640;11.756;2024-03-07T09:32:40;11.50;78.10
63017;DHT22;50274;45.640;11.756;2024-03-07T09:35:10;11.50;78.10
63017;DHT22;50274;45.640;11.756;2024-03-07T09:37:40;11.50;78.10
63017;DHT22;50274;45.640;11.756;2024-03-07T09:40:07;11.50;78.20
63017;DHT22;50274;45.640;11.756;2024-03-07T09:42:34;11.50;78.20
63017;DHT22;50274;45.640;11.756;2024-03-07T09:45:04;11.50;78.20
63017;DHT22;50274;45.640;11.756;2024-03-07T09:47:31;11.50;78.10
63017;DHT22;50274;45.640;11.756;2024-03-07T09:49:58;11.50;78.10
63017;DHT22;50274;45.640;11.756;2024-03-07T09:52:26;11.50;78.00
63017;DHT22;50274;45.640;11.756;2024-03-07T09:54:52;11.50;78.00
63017;DHT22;50274;45.640;11.756;2024-03-07T09:57:19;11.50;78.00
63017;DHT22;50274;45.640;11.756;2024-03-07T09:59:46;11.50;78.00
63017;DHT22;50274;45.640;11.756;2024-03-07T10:02:15;11.50;78.10
63017;DHT22;50274;45.640;11.756;2024-03-07T10:04:51;11.50;78.10
63017;DHT22;50274;45.640;11.756;2024-03-07T10:07:18;11.40;78.10
63017;DHT22;50274;45.640;11.756;2024-03-07T10:09:44;11.50;78.10
63017;DHT22;50274;45.640;11.756;2024-03-07T10:12:11;11.50;78.00
63017;DHT22;50274;45.640;11.756;2024-03-07T10:14:55;11.40;77.90
63017;DHT22;50274;45.640;11.756;2024-03-07T10:17:25;11.40;77.80
63017;DHT22;50274;45.640;11.756;2024-03-07T10:19:51;11.40;77.60
63017;DHT22;50274;45.640;11.756;2024-03-07T10:22:19;11.40;77.50
63017;DHT22;50274;45.640;11.756;2024-03-07T10:24:52;11.40;77.50
63017;DHT22;50274;45.640;11.756;2024-03-07T10:27:22;11.40;77.40
63017;DHT22;50274;45.640;11.756;2024-03-07T10:29:49;11.40;77.50
63017;DHT22;50274;45.640;11.756;2024-03-07T10:32:23;11.40;77.50
63017;DHT22;50274;45.640;11.756;2024-03-07T10:34:53;11.50;77.40
63017;DHT22;50274;45.640;11.756;2024-03-07T10:37:19;11.50;77.30
63017;DHT22;50274;45.640;11.756;2024-03-07T10:39:50;11.50;77.20
63017;DHT22;50274;45.640;11.756;2024-03-07T10:42:17;11.50;77.10
63017;DHT22;50274;45.640;11.756;2024-03-07T10:44:48;11.60;77.00
63017;DHT22;50274;45.640;11.756;2024-03-07T10:47:19;11.60;76.90
63017;DHT22;50274;45.640;11.756;2024-03-07T10:55:32;11.60;76.80
63017;DHT22;50274;45.640;11.756;2024-03-07T10:58:09;11.60;76.80
63017;DHT22;50274;45.640;11.756;2024-03-07T11:00:41;11.60;76.80
63017;DHT22;50274;45.640;11.756;2024-03-07T11:03:18;11.60;76.80
63017;DHT22;50274;45.640;11.756;2024-03-07T11:05:46;11.70;76.70
63017;DHT22;50274;45.640;11.756;2024-03-07T11:08:13;11.70;76.60
63017;DHT22;50274;45.640;11.756;2024-03-07T11:10:40;11.60;76.40
63017;DHT22;50274;45.640;11.756;2024-03-07T11:13:09;11.60;76.20
63017;DHT22;50274;45.640;11.756;2024-03-07T11:15:41;11.60;76.10
63017;DHT22;50274;45.640;11.756;2024-03-07T11:18:08;11.60;75.80
63017;DHT22;50274;45.640;11.756;2024-03-07T11:20:39;11.50;75.30
63017;DHT22;50274;45.640;11.756;2024-03-07T11:23:30;11.50;75.10
63017;DHT22;50274;45.640;11.756;2024-03-07T11:26:02;11.50;75.10
63017;DHT22;50274;45.640;11.756;2024-03-07T11:28:38;11.40;75.00
63017;DHT22;50274;45.640;11.756;2024-03-07T11:31:13;11.50;75.40
63017;DHT22;50274;45.640;11.756;2024-03-07T11:33:41;11.50;75.50
63017;DHT22;50274;45.640;11.756;2024-03-07T11:36:10;11.60;75.50
63017;DHT22;50274;45.640;11.756;2024-03-07T11:38:48;11.70;75.40
63017;DHT22;50274;45.640;11.756;2024-03-07T11:41:14;11.70;75.30
63017;DHT22;50274;45.640;11.756;2024-03-07T11:43:43;11.80;75.20
63017;DHT22;50274;45.640;11.756;2024-03-07T11:46:09;11.80;75.20
63017;DHT22;50274;45.640;11.756;2024-03-07T11:48:39;11.90;75.00
63017;DHT22;50274;45.640;11.756;2024-03-07T11:51:07;11.90;74.90
63017;DHT22;50274;45.640;11.756;2024-03-07T11:53:39;12.00;74.80
63017;DHT22;50274;45.640;11.756;2024-03-07T11:56:05;12.00;74.60
63017;DHT22;50274;45.640;11.756;2024-03-07T11:58:43;12.10;74.40
63017;DHT22;50274;45.640;11.756;2024-03-07T12:01:10;12.10;74.20
63017;DHT22;50274;45.640;11.756;2024-03-07T12:03:39;12.10;74.00
63017;DHT22;50274;45.640;11.756;2024-03-07T12:06:05;12.30;73.80
63017;DHT22;50274;45.640;11.756;2024-03-07T12:08:30;12.30;73.50
63017;DHT22;50274;45.640;11.756;2024-03-07T12:10:57;12.30;73.40
63017;DHT22;50274;45.640;11.756;2024-03-07T12:13:23;12.40;73.20
63017;DHT22;50274;45.640;11.756;2024-03-07T12:15:50;12.40;72.90
63017;DHT22;50274;45.640;11.756;2024-03-07T12:18:21;12.50;72.70
63017;DHT22;50274;45.640;11.756;2024-03-07T12:20:48;12.50;72.40
63017;DHT22;50274;45.640;11.756;2024-03-07T12:23:22;12.50;72.30
63017;DHT22;50274;45.640;11.756;2024-03-07T12:25:59;12.50;72.00
63017;DHT22;50274;45.640;11.756;2024-03-07T12:28:26;12.50;71.90
63017;DHT22;50274;45.640;11.756;2024-03-07T12:30:54;12.50;71.30
63017;DHT22;50274;45.640;11.756;2024-03-07T12:33:21;12.50;71.20
63017;DHT22;50274;45.640;11.756;2024-03-07T12:35:53;12.60;71.00
63017;DHT22;50274;45.640;11.756;2024-03-07T12:38:25;12.60;70.70
63017;DHT22;50274;45.640;11.756;2024-03-07T12:41:08;12.60;70.40
63017;DHT22;50274;45.640;11.756;2024-03-07T12:43:43;12.60;70.50
63017;DHT22;50274;45.640;11.756;2024-03-07T12:46:11;12.60;70.30
63017;DHT22;50274;45.640;11.756;2024-03-07T12:48:38;12.70;69.80
63017;DHT22;50274;45.640;11.756;2024-03-07T12:51:04;12.70;69.90
63017;DHT22;50274;45.640;11.756;2024-03-07T12:53:31;12.60;69.90
63017;DHT22;50274;45.640;11.756;2024-03-07T12:55:57;12.60;69.90
63017;DHT22;50274;45.640;11.756;2024-03-07T12:58:23;12.60;69.90
63017;DHT22;50274;45.640;11.756;2024-03-07T13:00:52;12.60;69.60
63017;DHT22;50274;45.640;11.756;2024-03-07T13:03:18;12.70;69.30
63017;DHT22;50274;45.640;11.756;2024-03-07T13:05:44;12.70;69.30
63017;DHT22;50274;45.640;11.756;2024-03-07T13:08:10;12.70;69.00
63017;DHT22;50274;45.640;11.756;2024-03-07T13:10:41;12.60;68.70
63017;DHT22;50274;45.640;11.756;2024-03-07T13:13:07;12.60;68.70
63017;DHT22;50274;45.640;11.756;2024-03-07T13:15:36;12.70;68.50
63017;DHT22;50274;45.640;11.756;2024-03-07T13:18:06;12.60;68.30
63017;DHT22;50274;45.640;11.756;2024-03-07T13:20:33;12.70;68.30
63017;DHT22;50274;45.640;11.756;2024-03-07T13:22:58;12.60;68.40
63017;DHT22;50274;45.640;11.756;2024-03-07T13:25:27;12.70;68.50
63017;DHT22;50274;45.640;11.756;2024-03-07T13:28:02;12.60;68.40
63017;DHT22;50274;45.640;11.756;2024-03-07T13:30:29;12.60;68.30
63017;DHT22;50274;45.640;11.756;2024-03-07T13:32:56;12.60;68.20
63017;DHT22;50274;45.640;11.756;2024-03-07T13:35:23;12.60;68.30
63017;DHT22;50274;45.640;11.756;2024-03-07T13:37:52;12.70;68.30
63017;DHT22;50274;45.640;11.756;2024-03-07T13:40:25;12.60;68.20
63017;DHT22;50274;45.640;11.756;2024-03-07T13:42:59;12.60;67.90
63017;DHT22;50274;45.640;11.756;2024-03-07T13:45:27;12.60;67.90
63017;DHT22;50274;45.640;11.756;2024-03-07T13:47:54;12.60;67.90
63017;DHT22;50274;45.640;11.756;2024-03-07T13:50:22;12.70;68.00
63017;DHT22;50274;45.640;11.756;2024-03-07T13:52:53;12.70;68.10
63017;DHT22;50274;45.640;11.756;2024-03-07T14:02:01;12.70;68.00
63017;DHT22;50274;45.640;11.756;2024-03-07T14:10:40;12.70;67.70
63017;DHT22;50274;45.640;11.756;2024-03-07T14:15:57;12.80;68.10
63017;DHT22;50274;45.640;11.756;2024-03-07T14:19:41;12.80;68.20
63017;DHT22;50274;45.640;11.756;2024-03-07T14:22:00;12.70;68.20
63017;DHT22;50274;45.640;11.756;2024-03-07T14:27:34;12.70;68.30
63017;DHT22;50274;45.640;11.756;2024-03-07T14:32:47;12.70;68.20
63017;DHT22;50274;45.640;11.756;2024-03-07T14:41:04;12.60;68.30
63017;DHT22;50274;45.640;11.756;2024-03-07T14:43:33;12.60;68.20
63017;DHT22;50274;45.640;11.756;2024-03-07T14:45:59;12.60;68.10
63017;DHT22;50274;45.640;11.756;2024-03-07T14:48:25;12.60;68.20
63017;DHT22;50274;45.640;11.756;2024-03-07T14:50:51;12.60;68.30
63017;DHT22;50274;45.640;11.756;2024-03-07T14:53:17;12.60;68.40
63017;DHT22;50274;45.640;11.756;2024-03-07T14:55:43;12.60;68.60
63017;DHT22;50274;45.640;11.756;2024-03-07T14:58:10;12.60;68.70
63017;DHT22;50274;45.640;11.756;2024-03-07T15:00:39;12.50;68.80
63017;DHT22;50274;45.640;11.756;2024-03-07T15:03:13;12.50;69.00
63017;DHT22;50274;45.640;11.756;2024-03-07T15:05:41;12.50;69.20
63017;DHT22;50274;45.640;11.756;2024-03-07T15:08:07;12.50;69.20
63017;DHT22;50274;45.640;11.756;2024-03-07T15:10:37;12.50;69.40
63017;DHT22;50274;45.640;11.756;2024-03-07T15:13:04;12.40;69.50
63017;DHT22;50274;45.640;11.756;2024-03-07T15:15:30;12.40;69.60
63017;DHT22;50274;45.640;11.756;2024-03-07T15:18:00;12.30;69.70
63017;DHT22;50274;45.640;11.756;2024-03-07T15:20:26;12.30;69.70
63017;DHT22;50274;45.640;11.756;2024-03-07T15:22:59;12.40;69.80
63017;DHT22;50274;45.640;11.756;2024-03-07T15:25:26;12.30;70.00
63017;DHT22;50274;45.640;11.756;2024-03-07T15:27:53;12.40;70.10
63017;DHT22;50274;45.640;11.756;2024-03-07T15:30:23;12.40;70.20
63017;DHT22;50274;45.640;11.756;2024-03-07T15:32:50;12.40;70.30
63017;DHT22;50274;45.640;11.756;2024-03-07T15:35:17;12.40;70.50
63017;DHT22;50274;45.640;11.756;2024-03-07T15:37:49;12.40;70.70
63017;DHT22;50274;45.640;11.756;2024-03-07T15:40:16;12.40;70.80
63017;DHT22;50274;45.640;11.756;2024-03-07T15:42:43;12.40;70.80
63017;DHT22;50274;45.640;11.756;2024-03-07T15:45:19;12.40;71.00
63017;DHT22;50274;45.640;11.756;2024-03-07T15:47:49;12.30;71.10
63017;DHT22;50274;45.640;11.756;2024-03-07T15:50:16;12.40;71.30
63017;DHT22;50274;45.640;11.756;2024-03-07T15:52:49;12.40;71.40